createdAt,value
2022-09-29T00:03:33.980Z,9.50
2022-09-29T00:09:26.958Z,9.37
2022-09-29T00:15:16.459Z,9.31
2022-09-29T00:21:05.130Z,9.33
2022-09-29T00:26:52.468Z,9.41
2022-09-29T00:32:39.818Z,9.36
2022-09-29T00:38:28.102Z,9.06
2022-09-29T00:44:19.464Z,9.11
2022-09-29T00:50:25.913Z,9.30
2022-09-29T00:56:15.357Z,9.21
2022-09-29T01:02:02.536Z,9.22
2022-09-29T01:07:50.841Z,9.11
2022-09-29T01:13:38.541Z,9.18
2022-09-29T01:19:46.709Z,9.22
2022-09-29T01:26:14.886Z,9.21
2022-09-29T01:32:20.614Z,9.13
2022-09-29T01:38:28.527Z,9.01
2022-09-29T01:44:46.031Z,9.20
2022-09-29T01:50:39.995Z,9.00
2022-09-29T01:56:37.336Z,8.91
2022-09-29T02:02:48.414Z,8.99
2022-09-29T02:08:42.671Z,9.00
2022-09-29T02:14:33.643Z,9.04
2022-09-29T02:20:21.517Z,8.98
2022-09-29T02:26:09.462Z,8.85
2022-09-29T02:31:59.376Z,8.84
2022-09-29T02:37:46.289Z,8.81
2022-09-29T02:44:27.204Z,8.60
2022-09-29T02:50:33.094Z,8.71
2022-09-29T02:56:38.694Z,8.65
2022-09-29T03:02:27.516Z,8.63
2022-09-29T03:08:14.397Z,8.60
2022-09-29T03:14:01.686Z,8.68
2022-09-29T03:19:48.561Z,8.72
2022-09-29T03:25:35.512Z,8.43
2022-09-29T03:31:25.650Z,8.48
2022-09-29T03:37:12.560Z,8.43
2022-09-29T03:42:59.250Z,8.51
2022-09-29T03:48:46.274Z,8.56
2022-09-29T03:54:33.069Z,8.56
2022-09-29T04:00:20.235Z,8.52
2022-09-29T04:06:07.239Z,8.49
2022-09-29T04:11:54.161Z,8.46
2022-09-29T04:17:41.106Z,8.45
2022-09-29T04:23:31.056Z,8.47
2022-09-29T04:29:18.134Z,8.46
2022-09-29T04:35:05.802Z,8.69
2022-09-29T04:40:53.230Z,8.68
2022-09-29T04:46:43.290Z,8.83
2022-09-29T04:52:30.303Z,8.88
2022-09-29T04:58:17.167Z,8.95
2022-09-29T05:04:04.540Z,8.97
2022-09-29T05:09:53.790Z,9.10
2022-09-29T05:15:40.631Z,9.26
2022-09-29T05:21:28.826Z,9.31
2022-09-29T05:27:16.308Z,9.25
2022-09-29T05:33:03.452Z,9.39
2022-09-29T05:38:51.011Z,9.45
2022-09-29T05:44:37.947Z,9.39
2022-09-29T05:50:34.487Z,9.34
2022-09-29T05:56:24.842Z,9.35
2022-09-29T06:02:11.931Z,9.35
2022-09-29T06:07:59.059Z,9.54
2022-09-29T06:13:48.307Z,9.60
2022-09-29T06:19:35.219Z,9.67
2022-09-29T06:25:25.142Z,9.78
2022-09-29T06:31:14.374Z,9.90
2022-09-29T06:43:20.530Z,9.92
2022-09-29T06:49:13.611Z,10.03
2022-09-29T06:55:00.356Z,10.07
2022-09-29T07:00:50.626Z,10.05
2022-09-29T07:06:40.884Z,10.25
2022-09-29T07:12:28.073Z,10.33
2022-09-29T07:18:17.877Z,10.38
2022-09-29T07:24:04.926Z,10.47
2022-09-29T07:30:01.570Z,10.61
2022-09-29T07:35:53.986Z,10.68
2022-09-29T07:41:40.861Z,10.80
2022-09-29T07:47:27.871Z,11.08
2022-09-29T07:53:15.063Z,11.44
2022-09-29T07:59:03.425Z,12.02
2022-09-29T08:04:50.870Z,13.50
2022-09-29T08:10:49.240Z,14.54
2022-09-29T08:16:39.743Z,14.99
2022-09-29T08:22:28.147Z,15.40
2022-09-29T08:28:24.040Z,15.68
2022-09-29T08:34:15.524Z,15.65
2022-09-29T08:40:02.922Z,15.12
2022-09-29T08:46:03.308Z,14.86
2022-09-29T08:51:54.387Z,14.59
2022-09-29T08:57:42.019Z,14.33
2022-09-29T09:03:56.907Z,14.90
2022-09-29T09:09:57.197Z,15.41
2022-09-29T09:16:02.251Z,15.45
2022-09-29T09:21:54.348Z,15.96
2022-09-29T09:27:47.852Z,16.07
2022-09-29T09:34:01.593Z,16.28
2022-09-29T09:40:26.529Z,17.48
2022-09-29T09:46:34.813Z,16.42
2022-09-29T09:52:29.703Z,16.25
2022-09-29T09:58:34.430Z,16.69
2022-09-29T10:04:23.577Z,16.60
2022-09-29T10:10:20.339Z,15.53
2022-09-29T10:16:16.289Z,16.15
2022-09-29T10:22:18.165Z,15.71
2022-09-29T10:28:14.617Z,16.21
2022-09-29T10:34:10.880Z,16.65
2022-09-29T10:40:12.801Z,16.45
2022-09-29T10:45:59.823Z,16.38
2022-09-29T10:52:26.458Z,16.28
2022-09-29T10:58:44.563Z,16.03
2022-09-29T11:13:41.383Z,17.06
2022-09-29T11:19:31.100Z,16.80
2022-09-29T11:25:37.996Z,16.69
2022-09-29T11:32:00.080Z,15.87
2022-09-29T11:38:16.753Z,15.89
2022-09-29T11:44:08.039Z,15.83
2022-09-29T11:50:30.918Z,16.27
2022-09-29T11:56:32.886Z,16.27
2022-09-29T12:02:47.822Z,16.04
2022-09-29T12:08:46.956Z,16.02
2022-09-29T12:14:53.279Z,16.91
2022-09-29T12:20:44.583Z,16.75
2022-09-29T12:26:33.519Z,16.01
2022-09-29T12:32:36.749Z,15.65
2022-09-29T12:38:33.554Z,15.55
2022-09-29T12:44:25.542Z,15.65
2022-09-29T12:50:19.988Z,15.92
2022-09-29T12:56:41.222Z,15.92
2022-09-29T13:02:56.095Z,16.00
2022-09-29T13:08:56.989Z,15.89
2022-09-29T13:15:10.401Z,16.05
2022-09-29T13:21:19.111Z,16.24
2022-09-29T13:27:14.957Z,16.96
2022-09-29T13:33:11.486Z,16.66
2022-09-29T13:39:00.332Z,16.14
2022-09-29T13:45:17.425Z,15.96
2022-09-29T13:51:23.821Z,15.65
2022-09-29T13:57:14.850Z,16.49
2022-09-29T14:03:05.041Z,17.15
2022-09-29T14:09:07.200Z,16.82
2022-09-29T14:15:01.909Z,16.31
2022-09-29T14:21:04.175Z,16.05
2022-09-29T14:26:54.882Z,16.28
2022-09-29T14:32:56.224Z,16.12
2022-09-29T14:39:02.646Z,16.42
2022-09-29T14:45:13.774Z,17.03
2022-09-29T14:51:31.517Z,17.04
2022-09-29T14:57:36.766Z,17.04
2022-09-29T15:03:49.651Z,16.88
2022-09-29T15:24:43.233Z,16.41
2022-09-29T15:30:31.910Z,16.14
2022-09-29T15:36:28.365Z,15.85
2022-09-29T15:42:19.652Z,16.00
2022-09-29T15:48:08.189Z,16.16
2022-09-29T15:53:55.958Z,16.23
2022-09-29T15:59:51.426Z,16.15
2022-09-29T16:05:45.247Z,16.38
2022-09-29T16:11:39.262Z,15.96
2022-09-29T16:17:26.125Z,15.88
2022-09-29T16:23:25.170Z,16.38
2022-09-29T16:29:14.344Z,16.42
2022-09-29T16:35:40.709Z,16.29
2022-09-29T16:41:47.425Z,15.84
2022-09-29T16:47:34.198Z,15.73
2022-09-29T16:53:30.944Z,15.68
2022-09-29T16:59:18.574Z,15.48
2022-09-29T17:05:05.708Z,15.37
2022-09-29T17:10:54.542Z,15.32
2022-09-29T17:16:42.038Z,15.23
2022-09-29T17:22:34.122Z,15.22
2022-09-29T17:28:26.757Z,15.18
2022-09-29T17:34:13.828Z,15.11
2022-09-29T18:17:10.279Z,14.81
2022-09-29T18:23:33.386Z,14.67
2022-09-29T18:44:59.942Z,14.02
2022-09-29T18:50:51.422Z,13.93
2022-09-29T18:56:38.426Z,13.80
2022-09-29T19:02:26.325Z,13.92
2022-09-29T19:08:15.003Z,13.91
2022-09-29T19:14:03.696Z,13.96
2022-09-29T19:19:50.557Z,13.91
2022-09-29T19:25:39.905Z,13.90
2022-09-29T19:31:26.701Z,13.75
2022-09-29T19:37:13.577Z,13.60
2022-09-29T19:43:08.457Z,13.62
2022-09-29T19:48:56.380Z,13.56
2022-09-29T19:54:43.024Z,13.40
2022-09-29T20:00:29.773Z,13.23
2022-09-29T20:06:16.361Z,13.14
2022-09-29T20:12:06.082Z,13.07
2022-09-29T20:18:00.201Z,12.88
2022-09-29T20:23:49.540Z,12.75
2022-09-29T20:29:37.788Z,12.74
2022-09-29T20:35:25.005Z,12.62
2022-09-29T20:41:12.083Z,12.45
2022-09-29T20:46:59.569Z,12.33
2022-09-29T20:52:48.079Z,12.43
2022-09-29T20:58:41.690Z,12.30
2022-09-29T21:04:28.427Z,12.36
2022-09-29T21:10:15.589Z,12.34
2022-09-29T21:16:05.358Z,12.49
2022-09-29T21:29:23.006Z,11.98
2022-09-29T21:35:21.574Z,11.97
2022-09-29T21:41:23.729Z,11.76
2022-09-29T21:47:10.583Z,11.58
2022-09-29T21:53:00.604Z,11.80
2022-09-29T21:58:49.619Z,11.65
2022-09-29T22:04:36.238Z,11.77
2022-09-29T22:10:23.268Z,11.85
2022-09-29T22:16:13.934Z,11.87
2022-09-29T22:22:03.174Z,11.92
2022-09-29T22:27:54.967Z,11.70
2022-09-29T22:33:43.555Z,11.66
2022-09-29T22:39:34.430Z,11.57
2022-09-29T22:45:23.939Z,11.56
2022-09-29T22:51:10.700Z,11.50
2022-09-29T22:57:00.460Z,11.42
2022-09-29T23:02:49.832Z,11.42
2022-09-29T23:08:37.348Z,11.41
2022-09-29T23:14:25.541Z,11.39
2022-09-29T23:20:14.906Z,11.48
2022-09-29T23:26:01.972Z,11.31
2022-09-29T23:31:49.774Z,11.03
2022-09-29T23:37:55.203Z,10.77
2022-09-29T23:43:43.700Z,10.78
2022-09-29T23:49:30.337Z,10.93
2022-09-29T23:55:19.873Z,10.92
